Latest Weather Observations for Lord Howe Island

IDN60801

Issued at 10:32 pm EST Wednesday 1 July 2015 (issued every 30 minutes, with the page automatically refreshed every 10 minutes)

About weather observations | Map of weather stations | Latest weather observations for NSW | Other Formats
Station Details ID: 200839 Name: LORD HOWE ISLAND AERO Lat: -31.54 Lon: 159.08 Height: 5.0 m
Data from the previous 72 hours. | See also: Recent months at Lord Howe Island
Date/Time
EST
Temp
°C
App
Temp
°C
Dew
Point
Rel
Hum
%
Delta-T
°C
Wind Press
QNH
hPa
Press
MSL
hPa
Rain
since 9 am
mm
Dir
 
Spd
km/h
Gust
km/h
Spd
kts
Gust
kts
01/10:30pm 15.8 14.9 12.5 81 1.8 SE 9 15 5 8 1019.5 - 45.0
01/10:00pm 15.6 14.9 13.3 86 1.3 SE 9 15 5 8 1019.6 - 45.0
01/09:30pm 15.7 14.6 13.0 84 1.5 SE 11 17 6 9 1019.6 - 45.0
01/09:15pm 15.7 14.7 13.4 86 1.3 ESE 11 17 6 9 1019.8 - 45.0
01/09:00pm 15.7 15.0 13.2 85 1.4 ESE 9 13 5 7 1019.8 - 45.0
01/08:35pm 15.7 15.1 13.4 86 1.3 SE 9 13 5 7 1019.9 - 45.0
01/08:30pm 15.7 14.7 13.4 86 1.3 SE 11 15 6 8 1019.9 1019.9 45.0
01/08:00pm 15.3 13.4 13.1 87 1.2 ESE 15 22 8 12 1019.8 - 45.0
01/07:30pm 15.3 10.1 12.9 85 1.3 E 32 43 17 23 1019.3 - 45.0
01/07:00pm 15.9 12.7 14.3 90 0.9 E 24 35 13 19 1019.6 - 44.8
01/06:44pm 15.7 12.8 14.1 90 0.9 E 22 30 12 16 1019.8 - 44.0
01/06:30pm 15.5 14.6 13.7 89 1.0 SE 11 19 6 10 1019.8 - 42.8
01/06:00pm 15.8 15.9 14.4 91 0.8 SE 7 13 4 7 1019.9 - 38.8
01/05:56pm 15.7 15.4 14.3 91 0.8 ESE 9 19 5 10 1019.9 - 38.2
01/05:30pm 16.1 13.7 14.5 90 0.9 E 20 26 11 14 1019.8 1019.8 36.8
01/05:06pm 16.2 14.1 14.8 91 0.8 E 19 24 10 13 1019.6 - 35.8
01/05:00pm 16.0 15.1 14.8 93 0.7 ESE 13 22 7 12 1019.5 - 35.6
01/04:49pm 16.0 15.0 14.6 91 0.8 ESE 13 24 7 13 1019.4 - 34.8
01/04:30pm 16.1 15.9 14.7 91 0.8 ESE 9 15 5 8 1019.7 - 33.6
01/04:00pm 15.7 15.7 14.1 90 0.9 SE 7 11 4 6 1019.8 - 32.8
01/03:50pm 15.6 15.9 14.4 93 0.7 ESE 6 9 3 5 1019.9 - 32.6
01/03:30pm 15.4 16.5 14.5 94 0.5 SSW 2 6 1 3 1020.2 - 32.6
01/03:17pm 15.4 15.1 14.3 93 0.6 ESE 9 11 5 6 1020.3 - 32.4
01/03:14pm 15.4 15.1 14.3 93 0.6 E 9 13 5 7 1020.4 - 32.4
01/03:07pm 15.4 15.1 14.3 93 0.6 ESE 9 13 5 7 1020.5 - 31.8
01/03:00pm 15.5 15.0 13.9 90 0.9 ESE 9 13 5 7 1020.5 - 31.6
01/02:30pm 16.0 16.5 15.0 94 0.6 WNW 6 7 3 4 1020.5 1020.5 26.4
01/02:00pm 15.9 16.4 15.0 94 0.5 S 6 7 3 4 1020.5 - 26.2
01/01:30pm 15.4 15.1 14.5 94 0.5 S 9 17 5 9 1020.8 - 25.2
01/01:00pm 15.7 15.9 14.8 94 0.5 NW 7 17 4 9 1021.2 - 23.0
01/12:41pm 16.2 12.9 15.0 93 0.7 W 26 32 14 17 1021.6 - 6.6
01/12:30pm 17.0 16.7 14.4 85 1.5 SSE 9 11 5 6 1021.3 - 5.6
01/12:00pm 17.4 16.2 14.1 81 1.9 E 13 17 7 9 1021.7 - 5.0
01/11:30am 17.8 15.7 14.7 82 1.8 ENE 19 24 10 13 1022.2 1022.2 4.6
01/11:00am 17.9 15.7 14.8 82 1.8 NE 20 26 11 14 1022.8 - 4.6
01/10:30am 18.7 16.0 15.5 81 1.9 NE 24 28 13 15 1023.1 - 4.6
01/10:00am 17.3 17.3 15.2 87 1.2 NNE 9 13 5 7 1023.7 - 4.6
01/09:38am 18.0 16.8 14.1 78 2.2 N 13 30 7 16 1023.9 - 0.2
01/09:30am 19.0 16.5 14.1 73 2.8 NE 20 24 11 13 1023.9 - 0.0
01/09:00am 18.8 16.5 14.1 74 2.7 NE 19 24 10 13 1024.0 - 0.0
01/08:30am 18.6 16.3 14.0 74 2.6 NE 19 22 10 12 1024.1 1024.1 0.0
01/08:00am 18.4 15.6 14.4 77 2.3 NE 22 26 12 14 1024.2 - 0.0
01/07:30am 18.6 16.0 14.8 78 2.2 NE 22 28 12 15 1024.0 - 0.0
01/07:00am 18.5 15.8 14.5 77 2.3 NE 22 28 12 15 1023.9 - 0.0
01/06:30am 18.7 16.5 13.2 70 3.1 NNE 17 24 9 13 1024.0 - 0.0
01/06:00am 18.4 16.1 14.0 75 2.5 NE 19 24 10 13 1023.8 - 0.0
01/05:30am 18.6 16.3 13.1 70 3.1 NE 17 22 9 12 1023.8 1023.8 0.0
01/05:00am 18.4 17.3 13.0 71 3.0 NNE 11 22 6 12 1023.9 - 0.0
01/04:30am 18.6 16.6 12.7 68 3.3 NNE 15 26 8 14 1023.8 - 0.0
01/04:00am 18.4 15.6 11.4 63 3.8 NNE 17 24 9 13 1023.9 - 0.0
01/03:30am 18.5 16.6 11.7 64 3.7 NNE 13 24 7 13 1024.1 - 0.0
01/03:00am 18.2 16.6 11.6 65 3.6 N 11 22 6 12 1024.3 - 0.0
01/02:30am 18.3 15.1 11.9 66 3.5 NNE 20 30 11 16 1024.3 1024.3 0.0
01/02:00am 18.3 15.2 12.3 68 3.3 NNE 20 26 11 14 1024.9 - 0.0
01/01:30am 17.9 14.6 12.7 71 2.9 NE 22 28 12 15 1025.4 - 0.0
01/01:00am 17.8 13.8 13.0 73 2.7 NNE 26 35 14 19 1025.6 - 0.0
01/12:30am 18.0 15.0 11.8 67 3.4 NNE 19 26 10 14 1025.7 - 0.0
01/12:00am 17.7 14.5 13.0 74 2.6 NE 22 28 12 15 1026.0 - 0.0
 
Date/Time
EST
Temp
°C
App
Temp
°C
Dew
Point
Rel
Hum
%
Delta-T
°C
Wind Press
QNH
hPa
Press
MSL
hPa
Rain
since 9 am
mm
Dir
 
Spd
km/h
Gust
km/h
Spd
kts
Gust
kts
30/11:30pm 17.6 13.8 12.5 72 2.8 NE 24 30 13 16 1026.3 1026.3 0.0
30/11:00pm 17.7 14.0 12.6 72 2.8 NE 24 30 13 16 1026.2 - 0.0
30/10:30pm 17.7 13.6 12.8 73 2.7 ENE 26 33 14 18 1026.5 - 0.0
30/10:00pm 17.7 13.1 13.4 76 2.4 ENE 30 37 16 20 1026.7 - 0.0
30/09:30pm 18.2 14.1 12.6 70 3.1 NE 26 32 14 17 1026.7 - 0.0
30/09:00pm 18.2 14.2 11.8 66 3.5 ENE 24 30 13 16 1027.0 - 0.0
30/08:30pm 18.3 14.5 11.1 63 3.9 ENE 22 32 12 17 1026.6 1026.6 0.0
30/08:00pm 18.1 13.5 11.0 63 3.8 ENE 26 32 14 17 1026.4 - 0.0
30/07:30pm 17.8 13.5 10.7 63 3.8 E 24 30 13 16 1026.2 - 0.0
30/07:00pm 17.7 13.7 10.3 62 3.9 ENE 22 26 12 14 1026.6 - 0.0
30/06:30pm 14.5 13.6 10.5 77 2.1 E 6 13 3 7 1027.6 - 0.0
30/06:00pm 15.2 15.2 11.0 76 2.2 SSW 2 6 1 3 1028.0 - 0.0
30/05:30pm 16.9 15.4 10.5 66 3.4 ENE 9 13 5 7 1027.5 1027.4 0.0
30/05:00pm 17.2 15.3 10.6 65 3.5 NE 11 15 6 8 1027.3 - 0.0
30/04:30pm 17.1 15.3 9.6 61 3.9 E 9 13 5 7 1027.0 - 0.0
30/04:00pm 17.3 15.2 9.6 60 4.0 E 11 15 6 8 1026.9 - 0.0
30/03:30pm 18.3 15.7 9.3 55 4.7 ENE 13 19 7 10 1027.0 - 0.0
30/03:00pm 18.7 16.8 11.8 64 3.8 E 13 17 7 9 1027.0 - 0.0
30/02:30pm 19.2 16.1 10.4 56 4.7 E 17 22 9 12 1026.8 1026.8 0.0
30/02:00pm 19.2 15.8 10.4 56 4.7 E 19 22 10 12 1027.0 - 0.0
30/01:30pm 19.3 16.6 10.3 56 4.8 ENE 15 20 8 11 1027.3 - 0.0
30/01:00pm 19.3 16.1 9.9 54 5.0 ENE 17 20 9 11 1027.5 - 0.0
30/12:30pm 19.4 16.2 10.0 54 5.0 ENE 17 22 9 12 1028.0 - 0.0
30/12:00pm 19.5 16.3 10.1 54 5.0 ENE 17 22 9 12 1028.5 - 0.0
30/11:30am 19.6 15.9 9.5 52 5.3 ENE 19 24 10 13 1029.0 1028.9 0.0
30/11:00am 19.5 15.8 9.4 52 5.3 ENE 19 22 10 12 1029.4 - 0.0
30/10:30am 19.5 15.6 9.4 52 5.3 ENE 20 26 11 14 1029.9 - 0.0
30/10:00am 19.6 15.7 8.8 49 5.7 E 19 26 10 14 1030.2 - 0.0
30/09:30am 19.2 15.4 9.7 54 5.0 ENE 20 28 11 15 1030.4 - 0.0
30/09:00am 19.1 15.7 10.5 57 4.6 E 19 24 10 13 1030.4 - 0.0
30/08:30am 18.8 14.8 9.0 53 5.1 E 20 26 11 14 1030.4 1030.3 0.0
30/08:00am 18.4 14.9 10.1 58 4.4 E 19 24 10 13 1030.3 - 0.0
30/07:30am 18.0 15.2 10.0 59 4.2 E 15 20 8 11 1030.1 - 0.0
30/07:00am 16.8 15.1 9.7 63 3.7 ESE 9 19 5 10 1030.1 - 0.0
30/06:30am 16.1 14.0 9.9 66 3.2 E 11 17 6 9 1030.1 - 0.0
30/06:00am 15.8 14.0 9.6 66 3.2 ESE 9 15 5 8 1029.9 - 0.0
30/05:30am 16.9 13.9 9.3 61 3.9 E 15 20 8 11 1029.7 1029.6 0.0
30/05:00am 16.3 13.9 8.8 61 3.8 ESE 11 17 6 9 1029.5 - 0.0
30/04:30am 16.5 14.0 8.2 58 4.2 SE 11 17 6 9 1029.4 - 0.0
30/04:00am 15.8 13.8 8.5 62 3.7 SE 9 13 5 7 1029.2 - 0.0
30/03:30am 16.5 14.2 7.4 55 4.5 ESE 9 13 5 7 1029.2 - 0.0
30/03:00am 16.9 15.2 8.2 56 4.4 SE 7 13 4 7 1029.3 - 0.0
30/02:30am 17.4 14.6 8.6 56 4.5 ESE 13 24 7 13 1029.3 1029.2 0.0
30/02:00am 17.2 15.1 8.3 56 4.5 SE 9 13 5 7 1029.5 - 0.0
30/01:30am 17.2 15.2 8.6 57 4.4 SSE 9 13 5 7 1029.5 - 0.0
30/01:00am 16.6 14.5 9.7 63 3.6 SE 11 15 6 8 1029.8 - 0.0
30/12:30am 17.3 15.0 8.9 57 4.3 SE 11 17 6 9 1029.8 - 0.0
30/12:00am 17.1 14.9 9.4 60 4.0 SE 11 15 6 8 1030.1 - 0.0
 
Date/Time
EST
Temp
°C
App
Temp
°C
Dew
Point
Rel
Hum
%
Delta-T
°C
Wind Press
QNH
hPa
Press
MSL
hPa
Rain
since 9 am
mm
Dir
 
Spd
km/h
Gust
km/h
Spd
kts
Gust
kts
29/11:30pm 17.2 15.0 9.5 60 4.0 SSE 11 17 6 9 1030.3 1030.2 0.0
29/11:00pm 17.2 15.1 9.7 61 3.9 SSE 11 15 6 8 1030.6 - 0.0
29/10:30pm 17.5 14.9 9.4 59 4.2 SE 13 20 7 11 1030.7 - 0.0
29/10:00pm 17.4 15.0 8.8 57 4.4 SE 11 17 6 9 1030.7 - 0.0
29/09:30pm 17.2 15.0 9.3 59 4.1 SE 11 17 6 9 1030.6 - 0.0
29/09:00pm 17.5 14.9 9.2 58 4.3 SE 13 19 7 10 1030.8 - 0.0
29/08:30pm 17.4 14.7 9.0 58 4.3 ESE 13 20 7 11 1031.1 1031.0 0.0
29/08:00pm 17.3 14.7 9.2 59 4.2 SE 13 17 7 9 1031.1 - 0.0
29/07:30pm 17.8 15.4 10.2 61 4.0 SE 13 17 7 9 1031.0 - 0.0
29/07:00pm 17.6 15.2 10.2 62 3.9 SE 13 15 7 8 1030.8 - 0.0
29/06:30pm 17.7 15.7 10.1 61 4.0 SE 11 17 6 9 1030.6 - 0.0
29/06:00pm 17.8 15.4 10.2 61 4.0 SE 13 17 7 9 1030.3 - 0.0
29/05:30pm 17.5 16.5 12.2 71 2.9 SE 9 17 5 9 1030.1 1030.0 0.0
29/05:00pm 17.6 16.5 11.9 69 3.1 ESE 9 15 5 8 1029.8 - 0.0
29/04:30pm 17.5 16.4 11.8 69 3.1 ESE 9 17 5 9 1029.7 - 0.0
29/04:00pm 17.6 17.1 11.9 69 3.1 ESE 6 11 3 6 1029.6 - 0.0
29/03:30pm 18.0 16.7 11.3 65 3.6 ESE 9 13 5 7 1029.7 - 0.0
29/03:00pm 18.0 16.7 12.6 70 3.0 E 11 15 6 8 1029.6 - 0.0
29/02:30pm 18.5 16.9 12.7 69 3.2 ENE 13 17 7 9 1029.7 1029.6 0.0
29/02:00pm 17.6 16.2 13.5 77 2.3 E 13 17 7 9 1029.8 - 0.0
29/01:30pm 17.5 15.3 14.3 81 1.8 E 19 24 10 13 1029.7 - 0.0
29/01:00pm 17.9 15.3 13.1 73 2.7 E 19 26 10 14 1029.8 - 0.0
29/12:30pm 18.7 18.7 12.4 67 3.5 E 4 9 2 5 1030.1 - 0.0
29/12:00pm 18.9 18.6 12.8 67 3.4 NE 6 9 3 5 1030.5 - 0.0
29/11:30am 19.8 18.3 12.0 60 4.3 ENE 11 15 6 8 1030.8 1030.7 0.0
29/11:00am 19.4 18.0 12.2 63 4.0 E 11 15 6 8 1031.0 - 0.0
29/10:30am 18.8 17.7 11.9 64 3.8 E 9 15 5 8 1031.4 - 0.0
29/10:00am 19.3 17.5 10.7 57 4.7 E 11 24 6 13 1031.6 - 0.0
29/09:30am 19.3 18.6 12.0 62 4.0 E 7 11 4 6 1031.7 - 0.0
29/09:00am 19.0 17.8 11.5 61 4.1 E 9 15 5 8 1031.7 - 0.0
29/08:30am 18.6 17.6 12.2 66 3.5 E 9 17 5 9 1031.6 1031.5 0.0
29/08:00am 17.8 16.6 11.7 67 3.3 SE 9 19 5 10 1031.6 - 0.0
29/07:30am 17.5 16.2 11.4 67 3.3 E 9 17 5 9 1031.4 - 0.0
29/07:00am 13.7 14.0 11.0 84 1.4 CALM 0 6 0 3 1031.1 - 0.0
29/06:30am 15.4 14.2 11.7 78 2.0 SE 9 11 5 6 1031.0 - 0.0
29/06:00am 13.9 12.9 11.0 83 1.5 SE 7 11 4 6 1030.7 - 0.0
29/05:30am 14.0 14.5 11.7 86 1.2 CALM 0 0 0 0 1030.5 1030.4 0.0
29/05:00am 15.6 15.8 11.7 77 2.1 SSE 2 6 1 3 1030.3 - 0.0
29/04:30am 14.8 14.9 11.6 81 1.7 SE 2 6 1 3 1030.2 - 0.0
29/04:00am 15.2 15.6 11.4 78 2.0 CALM 0 0 0 0 1030.1 - 0.0
29/03:30am 15.3 15.7 11.1 76 2.2 CALM 0 2 0 1 1030.1 - 0.0
29/03:00am 16.3 15.0 10.0 66 3.3 SE 7 17 4 9 1030.1 - 0.0
29/02:30am 16.7 14.8 8.9 60 4.0 ESE 9 11 5 6 1030.3 1030.2 0.0
29/02:00am 16.9 14.4 8.4 57 4.3 SE 11 17 6 9 1030.4 - 0.0
29/01:30am 16.3 15.2 10.6 69 3.0 SSE 7 11 4 6 1030.5 - 0.0
29/01:00am 15.4 15.7 12.3 82 1.7 ESE 2 7 1 4 1030.5 - 0.0
29/12:30am 15.8 15.6 11.7 76 2.2 SSW 4 7 2 4 1030.7 - 0.0
29/12:00am 15.4 15.2 11.7 78 2.0 SSE 4 11 2 6 1030.7 - 0.0
 
Date/Time
EST
Temp
°C
App
Temp
°C
Dew
Point
Rel
Hum
%
Delta-T
°C
Wind Press
QNH
hPa
Press
MSL
hPa
Rain
since 9 am
mm
Dir
 
Spd
km/h
Gust
km/h
Spd
kts
Gust
kts
28/11:30pm 15.4 14.5 11.5 77 2.1 S 7 9 4 5 1030.7 1030.6 0.0
28/11:00pm 16.2 14.9 11.3 73 2.6 S 9 13 5 7 1031.0 - 0.0
28/10:30pm 16.3 15.0 11.2 72 2.7 SSW 9 13 5 7 1031.0 - 0.0

Other Formats:

Comma delimited format used in spreadsheet applications
http://www.bom.gov.au/fwo/IDN60801/IDN60801.94995.axf

JavaScript Object Notation format (JSON) in row-major order
http://www.bom.gov.au/fwo/IDN60801/IDN60801.94995.json